sensor_id;sensor_type;location;lat;lon;timestamp;pressure;altitude;pressure_sealevel;temperature;humidity
53758;BME280;39674;59.860;30.672;2023-03-18T00:00:46;102538.72;;;-1.47;67.38
53758;BME280;39674;59.860;30.672;2023-03-18T00:03:28;102534.41;;;-1.47;66.89
53758;BME280;39674;59.860;30.672;2023-03-18T00:06:25;102536.19;;;-1.46;66.84
53758;BME280;39674;59.860;30.672;2023-03-18T00:08:58;102534.25;;;-1.53;67.00
53758;BME280;39674;59.860;30.672;2023-03-18T00:12:16;102531.53;;;-1.57;66.47
53758;BME280;39674;59.860;30.672;2023-03-18T00:14:33;102528.97;;;-1.56;67.13
53758;BME280;39674;59.860;30.672;2023-03-18T00:17:07;102523.69;;;-1.60;66.66
53758;BME280;39674;59.860;30.672;2023-03-18T00:20:26;102516.78;;;-1.60;67.23
53758;BME280;39674;59.860;30.672;2023-03-18T00:23:02;102517.56;;;-1.63;67.26
53758;BME280;39674;59.860;30.672;2023-03-18T00:25:45;102513.25;;;-1.62;67.56
53758;BME280;39674;59.860;30.672;2023-03-18T00:28:38;102511.47;;;-1.63;67.64
53758;BME280;39674;59.860;30.672;2023-03-18T00:31:44;102506.31;;;-1.63;67.73
53758;BME280;39674;59.860;30.672;2023-03-18T00:34:21;102510.59;;;-1.65;67.90
53758;BME280;39674;59.860;30.672;2023-03-18T00:37:01;102505.41;;;-1.65;68.08
53758;BME280;39674;59.860;30.672;2023-03-18T00:39:57;102509.75;;;-1.64;67.88
53758;BME280;39674;59.860;30.672;2023-03-18T00:42:56;102508.00;;;-1.65;68.17
53758;BME280;39674;59.860;30.672;2023-03-18T00:45:35;102496.72;;;-1.66;68.13
53758;BME280;39674;59.860;30.672;2023-03-18T00:48:32;102488.94;;;-1.67;67.53
53758;BME280;39674;59.860;30.672;2023-03-18T00:51:08;102488.06;;;-1.68;67.64
53758;BME280;39674;59.860;30.672;2023-03-18T00:53:46;102485.41;;;-1.69;66.59
53758;BME280;39674;59.860;30.672;2023-03-18T00:56:35;102492.44;;;-1.65;67.53
53758;BME280;39674;59.860;30.672;2023-03-18T00:59:28;102499.38;;;-1.64;67.55
53758;BME280;39674;59.860;30.672;2023-03-18T01:02:18;102499.38;;;-1.64;67.97
53758;BME280;39674;59.860;30.672;2023-03-18T01:05:27;102493.31;;;-1.65;68.17
53758;BME280;39674;59.860;30.672;2023-03-18T01:08:03;102498.59;;;-1.62;68.00
53758;BME280;39674;59.860;30.672;2023-03-18T01:10:45;102489.03;;;-1.64;68.11
53758;BME280;39674;59.860;30.672;2023-03-18T01:13:39;102494.22;;;-1.64;68.19
53758;BME280;39674;59.860;30.672;2023-03-18T01:16:30;102490.84;;;-1.60;68.19
53758;BME280;39674;59.860;30.672;2023-03-18T01:19:17;102490.84;;;-1.60;68.27
53758;BME280;39674;59.860;30.672;2023-03-18T01:22:01;102490.84;;;-1.60;68.40
53758;BME280;39674;59.860;30.672;2023-03-18T01:25:01;102489.19;;;-1.58;67.98
53758;BME280;39674;59.860;30.672;2023-03-18T01:27:51;102484.06;;;-1.55;68.09
53758;BME280;39674;59.860;30.672;2023-03-18T01:30:27;102480.66;;;-1.54;68.03
53758;BME280;39674;59.860;30.672;2023-03-18T01:33:13;102480.81;;;-1.48;67.91
53758;BME280;39674;59.860;30.672;2023-03-18T01:35:59;102477.28;;;-1.50;67.74
53758;BME280;39674;59.860;30.672;2023-03-18T01:39:10;102478.25;;;-1.46;67.79
53758;BME280;39674;59.860;30.672;2023-03-18T01:41:58;102480.16;;;-1.40;67.55
53758;BME280;39674;59.860;30.672;2023-03-18T01:45:13;102476.69;;;-1.41;67.29
53758;BME280;39674;59.860;30.672;2023-03-18T01:47:54;102468.03;;;-1.41;67.50
53758;BME280;39674;59.860;30.672;2023-03-18T01:50:48;102471.53;;;-1.39;67.21
53758;BME280;39674;59.860;30.672;2023-03-18T01:53:48;102465.69;;;-1.32;66.79
53758;BME280;39674;59.860;30.672;2023-03-18T01:56:30;102462.09;;;-1.37;67.02
53758;BME280;39674;59.860;30.672;2023-03-18T01:59:10;102456.91;;;-1.37;67.04
53758;BME280;39674;59.860;30.672;2023-03-18T02:02:20;102464.84;;;-1.31;66.96
53758;BME280;39674;59.860;30.672;2023-03-18T02:05:09;102462.16;;;-1.34;66.68
53758;BME280;39674;59.860;30.672;2023-03-18T02:08:11;102461.38;;;-1.32;66.84
53758;BME280;39674;59.860;30.672;2023-03-18T02:10:58;102455.63;;;-1.20;65.64
53758;BME280;39674;59.860;30.672;2023-03-18T02:13:40;102462.78;;;-1.09;64.15
53758;BME280;39674;59.860;30.672;2023-03-18T02:16:26;102461.13;;;-1.07;64.31
53758;BME280;39674;59.860;30.672;2023-03-18T02:20:02;102461.09;;;-1.09;64.55
53758;BME280;39674;59.860;30.672;2023-03-18T02:28:25;102448.69;;;-1.21;66.03
53758;BME280;39674;59.860;30.672;2023-03-18T02:31:35;102448.66;;;-1.22;66.25
53758;BME280;39674;59.860;30.672;2023-03-18T02:34:15;102448.91;;;-1.11;65.56
53758;BME280;39674;59.860;30.672;2023-03-18T02:40:52;102442.03;;;-1.09;65.90
53758;BME280;39674;59.860;30.672;2023-03-18T02:43:51;102444.56;;;-1.13;66.04
53758;BME280;39674;59.860;30.672;2023-03-18T02:46:48;102449.75;;;-1.13;66.70
53758;BME280;39674;59.860;30.672;2023-03-18T02:49:33;102448.19;;;-1.04;65.18
53758;BME280;39674;59.860;30.672;2023-03-18T02:52:52;102431.91;;;-1.00;65.00
53758;BME280;39674;59.860;30.672;2023-03-18T02:55:30;102435.31;;;-1.03;65.69
53758;BME280;39674;59.860;30.672;2023-03-18T02:58:11;102441.34;;;-1.02;65.81
53758;BME280;39674;59.860;30.672;2023-03-18T03:03:59;102437.94;;;-1.00;65.99
53758;BME280;39674;59.860;30.672;2023-03-18T03:06:50;102435.31;;;-1.01;65.28
53758;BME280;39674;59.860;30.672;2023-03-18T03:09:36;102434.47;;;-1.02;65.66
53758;BME280;39674;59.860;30.672;2023-03-18T03:12:17;102443.94;;;-1.02;66.01
53758;BME280;39674;59.860;30.672;2023-03-18T03:14:57;102443.19;;;-0.98;66.06
53758;BME280;39674;59.860;30.672;2023-03-18T03:17:40;102456.06;;;-1.01;66.06
53758;BME280;39674;59.860;30.672;2023-03-18T03:20:21;102453.47;;;-1.01;66.27
53758;BME280;39674;59.860;30.672;2023-03-18T03:23:57;102459.66;;;-0.96;65.91
53758;BME280;39674;59.860;30.672;2023-03-18T03:26:15;102461.41;;;-0.95;65.74
53758;BME280;39674;59.860;30.672;2023-03-18T03:28:46;102461.41;;;-0.95;65.99
53758;BME280;39674;59.860;30.672;2023-03-18T03:31:19;102464.94;;;-0.93;66.17
53758;BME280;39674;59.860;30.672;2023-03-18T03:34:16;102452.72;;;-0.97;65.96
53758;BME280;39674;59.860;30.672;2023-03-18T03:36:50;102452.91;;;-0.89;65.63
53758;BME280;39674;59.860;30.672;2023-03-18T03:39:42;102450.25;;;-0.91;65.99
53758;BME280;39674;59.860;30.672;2023-03-18T03:42:19;102447.66;;;-0.91;65.74
53758;BME280;39674;59.860;30.672;2023-03-18T03:45:19;102451.13;;;-0.92;66.30
53758;BME280;39674;59.860;30.672;2023-03-18T03:48:29;102444.28;;;-0.88;65.54
53758;BME280;39674;59.860;30.672;2023-03-18T03:54:12;102446.91;;;-0.87;66.20
53758;BME280;39674;59.860;30.672;2023-03-18T03:56:52;102442.72;;;-0.82;65.96
53758;BME280;39674;59.860;30.672;2023-03-18T03:59:32;102439.19;;;-0.84;66.32
53758;BME280;39674;59.860;30.672;2023-03-18T04:02:30;102433.13;;;-0.84;66.02
53758;BME280;39674;59.860;30.672;2023-03-18T04:05:23;102429.66;;;-0.85;66.43
53758;BME280;39674;59.860;30.672;2023-03-18T04:07:55;102431.47;;;-0.82;65.62
53758;BME280;39674;59.860;30.672;2023-03-18T04:10:40;102434.34;;;-0.70;65.31
53758;BME280;39674;59.860;30.672;2023-03-18T04:13:45;102422.19;;;-0.72;65.66
53758;BME280;39674;59.860;30.672;2023-03-18T04:16:28;102425.66;;;-0.70;65.28
53758;BME280;39674;59.860;30.672;2023-03-18T04:19:02;102421.25;;;-0.74;65.13
53758;BME280;39674;59.860;30.672;2023-03-18T04:21:40;102424.72;;;-0.74;65.35
53758;BME280;39674;59.860;30.672;2023-03-18T04:24:29;102425.66;;;-0.70;65.75
53758;BME280;39674;59.860;30.672;2023-03-18T04:27:18;102425.53;;;-0.76;65.87
53758;BME280;39674;59.860;30.672;2023-03-18T04:29:55;102420.47;;;-0.70;65.48
53758;BME280;39674;59.860;30.672;2023-03-18T04:32:41;102420.56;;;-0.67;65.57
53758;BME280;39674;59.860;30.672;2023-03-18T04:35:12;102415.28;;;-0.70;65.30
53758;BME280;39674;59.860;30.672;2023-03-18T04:37:50;102418.81;;;-0.68;65.40
53758;BME280;39674;59.860;30.672;2023-03-18T04:40:45;102419.84;;;-0.60;64.71
53758;BME280;39674;59.860;30.672;2023-03-18T04:43:36;102417.31;;;-0.57;64.44
53758;BME280;39674;59.860;30.672;2023-03-18T04:46:07;102413.84;;;-0.57;64.29
53758;BME280;39674;59.860;30.672;2023-03-18T04:48:40;102411.38;;;-0.53;63.69
53758;BME280;39674;59.860;30.672;2023-03-18T04:51:42;102404.34;;;-0.57;64.17
53758;BME280;39674;59.860;30.672;2023-03-18T04:54:30;102401.84;;;-0.52;64.50
53758;BME280;39674;59.860;30.672;2023-03-18T04:57:04;102406.25;;;-0.48;63.70
53758;BME280;39674;59.860;30.672;2023-03-18T04:59:48;102404.47;;;-0.51;64.01
53758;BME280;39674;59.860;30.672;2023-03-18T05:02:33;102403.63;;;-0.50;63.83
53758;BME280;39674;59.860;30.672;2023-03-18T05:05:20;102412.34;;;-0.47;63.93
53758;BME280;39674;59.860;30.672;2023-03-18T05:08:11;102405.38;;;-0.49;64.30
53758;BME280;39674;59.860;30.672;2023-03-18T05:10:45;102403.75;;;-0.45;64.46
53758;BME280;39674;59.860;30.672;2023-03-18T05:13:15;102403.72;;;-0.46;64.00
53758;BME280;39674;59.860;30.672;2023-03-18T05:15:56;102375.72;;;-0.60;64.25
53758;BME280;39674;59.860;30.672;2023-03-18T05:18:42;102392.69;;;-0.35;63.27
53758;BME280;39674;59.860;30.672;2023-03-18T05:21:23;102394.53;;;-0.30;63.42
53758;BME280;39674;59.860;30.672;2023-03-18T05:24:16;102405.06;;;-0.23;62.73
53758;BME280;39674;59.860;30.672;2023-03-18T05:26:47;102401.66;;;-0.19;63.18
53758;BME280;39674;59.860;30.672;2023-03-18T05:29:18;102389.56;;;-0.20;63.39
53758;BME280;39674;59.860;30.672;2023-03-18T05:32:11;102395.63;;;-0.18;63.01
53758;BME280;39674;59.860;30.672;2023-03-18T05:34:58;102388.91;;;-0.06;63.30
53758;BME280;39674;59.860;30.672;2023-03-18T05:37:50;102389.13;;;0.03;62.90
53758;BME280;39674;59.860;30.672;2023-03-18T05:40:32;102401.41;;;0.13;62.26
53758;BME280;39674;59.860;30.672;2023-03-18T05:43:25;102385.94;;;0.20;62.23
53758;BME280;39674;59.860;30.672;2023-03-18T05:46:00;102396.47;;;0.26;61.93
53758;BME280;39674;59.860;30.672;2023-03-18T05:48:54;102394.06;;;0.37;61.63
53758;BME280;39674;59.860;30.672;2023-03-18T05:51:32;102390.78;;;0.45;61.46
53758;BME280;39674;59.860;30.672;2023-03-18T05:54:13;102353.16;;;0.25;61.01
53758;BME280;39674;59.860;30.672;2023-03-18T05:56:46;102383.16;;;0.58;60.75
53758;BME280;39674;59.860;30.672;2023-03-18T05:59:15;102385.81;;;0.61;60.66
53758;BME280;39674;59.860;30.672;2023-03-18T06:02:06;102382.47;;;0.70;60.55
53758;BME280;39674;59.860;30.672;2023-03-18T06:04:47;102374.72;;;0.71;61.09
53758;BME280;39674;59.860;30.672;2023-03-18T06:15:31;102378.72;;;1.07;59.26
53758;BME280;39674;59.860;30.672;2023-03-18T06:19:34;102375.38;;;1.15;59.38
53758;BME280;39674;59.860;30.672;2023-03-18T06:22:09;102378.16;;;1.28;58.41
53758;BME280;39674;59.860;30.672;2023-03-18T06:25:19;102378.25;;;1.35;59.21
53758;BME280;39674;59.860;30.672;2023-03-18T06:32:10;102373.53;;;1.72;57.81
53758;BME280;39674;59.860;30.672;2023-03-18T06:35:09;102371.13;;;1.89;57.35
53758;BME280;39674;59.860;30.672;2023-03-18T06:41:06;102378.19;;;1.99;56.81
53758;BME280;39674;59.860;30.672;2023-03-18T06:44:25;102369.50;;;2.00;57.23
53758;BME280;39674;59.860;30.672;2023-03-18T06:47:17;102369.56;;;2.06;56.68
53758;BME280;39674;59.860;30.672;2023-03-18T06:49:53;102373.16;;;2.18;57.03
53758;BME280;39674;59.860;30.672;2023-03-18T06:52:31;102361.94;;;2.27;56.67
53758;BME280;39674;59.860;30.672;2023-03-18T06:55:11;102378.59;;;2.39;57.01
53758;BME280;39674;59.860;30.672;2023-03-18T06:57:54;102368.22;;;2.46;55.99
53758;BME280;39674;59.860;30.672;2023-03-18T07:00:36;102356.88;;;2.45;56.02
53758;BME280;39674;59.860;30.672;2023-03-18T07:03:25;102359.56;;;2.53;55.60
53758;BME280;39674;59.860;30.672;2023-03-18T07:06:08;102366.53;;;2.54;55.37
53758;BME280;39674;59.860;30.672;2023-03-18T07:08:48;102363.06;;;2.55;54.38
53758;BME280;39674;59.860;30.672;2023-03-18T07:11:17;102368.28;;;2.55;53.19
53758;BME280;39674;59.860;30.672;2023-03-18T07:16:44;102367.41;;;2.53;53.57
53758;BME280;39674;59.860;30.672;2023-03-18T07:19:24;102362.19;;;2.54;53.80
53758;BME280;39674;59.860;30.672;2023-03-18T07:22:02;102369.13;;;2.51;53.69
53758;BME280;39674;59.860;30.672;2023-03-18T07:24:35;102363.00;;;2.49;54.17
53758;BME280;39674;59.860;30.672;2023-03-18T07:27:04;102360.47;;;2.56;53.83
53758;BME280;39674;59.860;30.672;2023-03-18T07:29:52;102357.88;;;2.58;54.24
53758;BME280;39674;59.860;30.672;2023-03-18T07:35:49;102348.44;;;2.74;53.99
53758;BME280;39674;59.860;30.672;2023-03-18T07:38:21;102349.34;;;2.81;53.95
53758;BME280;39674;59.860;30.672;2023-03-18T07:41:05;102346.84;;;2.93;52.08
53758;BME280;39674;59.860;30.672;2023-03-18T07:43:53;102354.66;;;2.96;52.87
53758;BME280;39674;59.860;30.672;2023-03-18T07:46:51;102349.50;;;3.02;52.22
53758;BME280;39674;59.860;30.672;2023-03-18T07:49:25;102344.31;;;3.05;52.34
53758;BME280;39674;59.860;30.672;2023-03-18T07:52:08;102337.34;;;3.08;51.59
53758;BME280;39674;59.860;30.672;2023-03-18T07:54:37;102333.84;;;3.09;51.21
53758;BME280;39674;59.860;30.672;2023-03-18T07:57:06;102336.47;;;3.09;51.30
53758;BME280;39674;59.860;30.672;2023-03-18T07:59:39;102345.19;;;3.14;51.99
53758;BME280;39674;59.860;30.672;2023-03-18T08:02:09;102337.38;;;3.11;50.48
53758;BME280;39674;59.860;30.672;2023-03-18T08:04:41;102330.38;;;3.10;51.54
53758;BME280;39674;59.860;30.672;2023-03-18T08:07:14;102326.91;;;3.14;50.87
53758;BME280;39674;59.860;30.672;2023-03-18T08:10:00;102332.19;;;3.17;49.61
53758;BME280;39674;59.860;30.672;2023-03-18T08:12:36;102328.63;;;3.10;51.38
53758;BME280;39674;59.860;30.672;2023-03-18T08:15:13;102316.50;;;3.15;50.00
53758;BME280;39674;59.860;30.672;2023-03-18T08:17:47;102318.22;;;3.12;50.20
53758;BME280;39674;59.860;30.672;2023-03-18T08:20:26;102319.09;;;3.14;49.95
53758;BME280;39674;59.860;30.672;2023-03-18T08:22:59;102326.94;;;3.17;49.55
53758;BME280;39674;59.860;30.672;2023-03-18T08:25:40;102318.25;;;3.18;50.45
53758;BME280;39674;59.860;30.672;2023-03-18T08:28:09;102324.38;;;3.21;49.95
53758;BME280;39674;59.860;30.672;2023-03-18T08:30:43;102322.63;;;3.20;50.84
53758;BME280;39674;59.860;30.672;2023-03-18T08:33:12;102326.13;;;3.23;50.30
53758;BME280;39674;59.860;30.672;2023-03-18T08:35:43;102314.84;;;3.31;50.34
53758;BME280;39674;59.860;30.672;2023-03-18T08:38:17;102314.88;;;3.41;48.11
53758;BME280;39674;59.860;30.672;2023-03-18T08:40:48;102313.13;;;3.36;49.98
53758;BME280;39674;59.860;30.672;2023-03-18T08:43:17;102310.50;;;3.38;49.28
53758;BME280;39674;59.860;30.672;2023-03-18T08:45:50;102306.19;;;3.45;48.81
53758;BME280;39674;59.860;30.672;2023-03-18T08:48:18;102304.44;;;3.44;47.93
53758;BME280;39674;59.860;30.672;2023-03-18T08:50:48;102307.97;;;3.52;46.30
53758;BME280;39674;59.860;30.672;2023-03-18T08:53:21;102316.66;;;3.54;46.87
53758;BME280;39674;59.860;30.672;2023-03-18T08:55:49;102307.97;;;3.53;47.24
53758;BME280;39674;59.860;30.672;2023-03-18T08:58:23;102298.41;;;3.57;47.04
53758;BME280;39674;59.860;30.672;2023-03-18T09:00:53;102304.47;;;3.59;47.96
53758;BME280;39674;59.860;30.672;2023-03-18T09:03:24;102314.94;;;3.65;46.66
53758;BME280;39674;59.860;30.672;2023-03-18T09:05:54;102301.03;;;3.68;46.27
53758;BME280;39674;59.860;30.672;2023-03-18T09:08:34;102301.94;;;3.73;45.29
53758;BME280;39674;59.860;30.672;2023-03-18T09:11:04;102303.66;;;3.77;45.51
53758;BME280;39674;59.860;30.672;2023-03-18T09:13:35;102303.66;;;3.77;45.54
53758;BME280;39674;59.860;30.672;2023-03-18T09:16:04;102301.06;;;3.82;44.15
53758;BME280;39674;59.860;30.672;2023-03-18T09:18:36;102306.28;;;3.85;44.53
53758;BME280;39674;59.860;30.672;2023-03-18T09:21:11;102305.44;;;3.91;44.21
53758;BME280;39674;59.860;30.672;2023-03-18T09:23:48;102309.78;;;3.87;44.97
53758;BME280;39674;59.860;30.672;2023-03-18T09:26:22;102310.69;;;3.94;43.72
53758;BME280;39674;59.860;30.672;2023-03-18T09:28:51;102295.88;;;3.94;43.99
53758;BME280;39674;59.860;30.672;2023-03-18T09:31:28;102300.22;;;3.97;43.24
53758;BME280;39674;59.860;30.672;2023-03-18T09:33:57;102295.88;;;3.94;44.24
53758;BME280;39674;59.860;30.672;2023-03-18T09:36:24;102301.09;;;3.97;42.68
53758;BME280;39674;59.860;30.672;2023-03-18T09:39:00;102295.88;;;3.99;43.17
53758;BME280;39674;59.860;30.672;2023-03-18T09:41:34;102292.38;;;3.97;44.47
53758;BME280;39674;59.860;30.672;2023-03-18T09:44:08;102278.44;;;4.06;43.59
53758;BME280;39674;59.860;30.672;2023-03-18T09:46:45;102283.69;;;4.10;43.81
53758;BME280;39674;59.860;30.672;2023-03-18T09:49:22;102288.91;;;4.15;43.91
53758;BME280;39674;59.860;30.672;2023-03-18T09:52:09;102285.41;;;4.19;43.73
53758;BME280;39674;59.860;30.672;2023-03-18T09:54:45;102287.19;;;4.17;44.37
53758;BME280;39674;59.860;30.672;2023-03-18T09:57:16;102283.69;;;4.26;44.42
53758;BME280;39674;59.860;30.672;2023-03-18T09:59:52;102283.69;;;4.26;44.18
53758;BME280;39674;59.860;30.672;2023-03-18T10:02:37;102289.78;;;4.32;43.28
53758;BME280;39674;59.860;30.672;2023-03-18T10:05:17;102274.97;;;4.34;42.89
53758;BME280;39674;59.860;30.672;2023-03-18T10:07:50;102280.19;;;4.34;43.48
53758;BME280;39674;59.860;30.672;2023-03-18T10:10:23;102272.34;;;4.36;41.56
53758;BME280;39674;59.860;30.672;2023-03-18T10:12:56;102268.88;;;4.31;43.33
53758;BME280;39674;59.860;30.672;2023-03-18T10:15:31;102268.88;;;4.31;44.29
53758;BME280;39674;59.860;30.672;2023-03-18T10:18:01;102262.78;;;4.30;43.72
53758;BME280;39674;59.860;30.672;2023-03-18T10:20:36;102254.91;;;4.27;44.07
53758;BME280;39674;59.860;30.672;2023-03-18T10:23:15;102258.41;;;4.29;43.54
53758;BME280;39674;59.860;30.672;2023-03-18T10:25:50;102250.56;;;4.26;43.41
53758;BME280;39674;59.860;30.672;2023-03-18T10:28:35;102254.91;;;4.23;43.89
53758;BME280;39674;59.860;30.672;2023-03-18T10:31:15;102247.06;;;4.21;44.04
53758;BME280;39674;59.860;30.672;2023-03-18T10:33:53;102247.06;;;4.24;44.60
53758;BME280;39674;59.860;30.672;2023-03-18T10:36:24;102243.59;;;4.28;43.90
53758;BME280;39674;59.860;30.672;2023-03-18T10:38:55;102226.13;;;4.33;43.96
53758;BME280;39674;59.860;30.672;2023-03-18T10:41:30;102232.22;;;4.32;44.19
53758;BME280;39674;59.860;30.672;2023-03-18T10:44:05;102228.75;;;4.37;44.38
53758;BME280;39674;59.860;30.672;2023-03-18T10:46:42;102222.63;;;4.44;44.34
53758;BME280;39674;59.860;30.672;2023-03-18T10:49:13;102222.63;;;4.47;44.50
53758;BME280;39674;59.860;30.672;2023-03-18T10:51:45;102220.88;;;4.46;45.08
53758;BME280;39674;59.860;30.672;2023-03-18T10:54:19;102223.47;;;4.57;43.34
53758;BME280;39674;59.860;30.672;2023-03-18T10:56:52;102222.59;;;4.59;44.13
53758;BME280;39674;59.860;30.672;2023-03-18T10:59:21;102220.84;;;4.64;43.74
53758;BME280;39674;59.860;30.672;2023-03-18T11:01:51;102215.63;;;4.68;44.11
53758;BME280;39674;59.860;30.672;2023-03-18T11:04:22;102209.47;;;4.79;43.86
53758;BME280;39674;59.860;30.672;2023-03-18T11:06:54;102203.31;;;4.91;44.01
53758;BME280;39674;59.860;30.672;2023-03-18T11:09:28;102206.75;;;5.06;42.96
53758;BME280;39674;59.860;30.672;2023-03-18T11:12:01;102200.56;;;5.19;43.08
53758;BME280;39674;59.860;30.672;2023-03-18T11:14:31;102199.63;;;5.33;43.30
53758;BME280;39674;59.860;30.672;2023-03-18T11:17:04;102190.81;;;5.46;42.85
53758;BME280;39674;59.860;30.672;2023-03-18T11:19:47;102183.75;;;5.57;43.06
53758;BME280;39674;59.860;30.672;2023-03-18T11:22:19;102180.22;;;5.61;42.61
53758;BME280;39674;59.860;30.672;2023-03-18T11:25:03;102185.50;;;5.58;41.58
53758;BME280;39674;59.860;30.672;2023-03-18T11:27:42;102180.28;;;5.52;42.47
53758;BME280;39674;59.860;30.672;2023-03-18T11:30:13;102177.66;;;5.52;42.21
53758;BME280;39674;59.860;30.672;2023-03-18T11:32:50;102171.59;;;5.44;42.82
53758;BME280;39674;59.860;30.672;2023-03-18T11:35:20;102175.94;;;5.46;42.32
53758;BME280;39674;59.860;30.672;2023-03-18T11:37:50;102172.50;;;5.40;42.92
53758;BME280;39674;59.860;30.672;2023-03-18T11:40:19;102157.63;;;5.42;41.92
53758;BME280;39674;59.860;30.672;2023-03-18T11:45:45;102142.84;;;5.36;43.68
53758;BME280;39674;59.860;30.672;2023-03-18T11:48:17;102138.31;;;5.55;42.38
53758;BME280;39674;59.860;30.672;2023-03-18T11:50:53;102140.06;;;5.59;42.36
53758;BME280;39674;59.860;30.672;2023-03-18T11:53:26;102127.78;;;5.65;43.09
53758;BME280;39674;59.860;30.672;2023-03-18T11:55:57;102133.03;;;5.61;43.21
53758;BME280;39674;59.860;30.672;2023-03-18T12:01:39;102106.84;;;5.58;44.08
53758;BME280;39674;59.860;30.672;2023-03-18T12:04:31;102112.06;;;5.61;43.08
53758;BME280;39674;59.860;30.672;2023-03-18T12:07:13;102115.53;;;5.63;42.68
53758;BME280;39674;59.860;30.672;2023-03-18T12:09:48;102109.50;;;5.55;42.97
53758;BME280;39674;59.860;30.672;2023-03-18T12:12:25;102113.88;;;5.52;43.60
53758;BME280;39674;59.860;30.672;2023-03-18T12:14:58;102110.41;;;5.48;43.54
53758;BME280;39674;59.860;30.672;2023-03-18T12:17:34;102112.25;;;5.37;43.50
53758;BME280;39674;59.860;30.672;2023-03-18T12:20:19;102106.19;;;5.30;44.19
53758;BME280;39674;59.860;30.672;2023-03-18T12:23:07;102097.50;;;5.26;44.15
53758;BME280;39674;59.860;30.672;2023-03-18T12:25:46;102091.44;;;5.18;44.68
53758;BME280;39674;59.860;30.672;2023-03-18T12:28:35;102103.66;;;5.19;45.19
53758;BME280;39674;59.860;30.672;2023-03-18T12:31:12;102087.94;;;5.19;44.33
53758;BME280;39674;59.860;30.672;2023-03-18T12:33:52;102092.34;;;5.11;44.65
53758;BME280;39674;59.860;30.672;2023-03-18T12:36:27;102080.09;;;5.14;44.04
53758;BME280;39674;59.860;30.672;2023-03-18T12:39:02;102084.47;;;5.14;45.04
53758;BME280;39674;59.860;30.672;2023-03-18T12:41:44;102079.25;;;5.11;45.72
53758;BME280;39674;59.860;30.672;2023-03-18T12:44:26;102074.94;;;5.05;45.40
53758;BME280;39674;59.860;30.672;2023-03-18T12:47:01;102072.31;;;5.04;45.21
53758;BME280;39674;59.860;30.672;2023-03-18T12:49:35;102076.72;;;5.02;45.85
53758;BME280;39674;59.860;30.672;2023-03-18T12:52:10;102077.59;;;5.01;44.72
53758;BME280;39674;59.860;30.672;2023-03-18T12:54:51;102075.84;;;5.00;45.10
53758;BME280;39674;59.860;30.672;2023-03-18T12:57:27;102068.00;;;5.00;45.87
53758;BME280;39674;59.860;30.672;2023-03-18T13:00:00;102071.50;;;4.94;46.02
53758;BME280;39674;59.860;30.672;2023-03-18T13:02:40;102066.28;;;4.92;46.21
53758;BME280;39674;59.860;30.672;2023-03-18T13:05:22;102061.06;;;4.91;46.24
53758;BME280;39674;59.860;30.672;2023-03-18T13:07:57;102061.91;;;4.93;45.69
53758;BME280;39674;59.860;30.672;2023-03-18T13:10:30;102062.81;;;4.89;46.74
53758;BME280;39674;59.860;30.672;2023-03-18T13:13:02;102048.00;;;4.89;46.22
53758;BME280;39674;59.860;30.672;2023-03-18T13:15:33;102046.22;;;4.91;46.05
53758;BME280;39674;59.860;30.672;2023-03-18T13:18:05;102044.47;;;4.93;45.76
53758;BME280;39674;59.860;30.672;2023-03-18T13:20:42;102036.56;;;5.00;45.87
53758;BME280;39674;59.860;30.672;2023-03-18T13:23:20;102049.63;;;5.03;46.38
53758;BME280;39674;59.860;30.672;2023-03-18T13:25:57;102040.06;;;5.02;46.28
53758;BME280;39674;59.860;30.672;2023-03-18T13:28:41;102035.66;;;5.04;46.60
53758;BME280;39674;59.860;30.672;2023-03-18T13:31:19;102036.50;;;5.10;46.18
53758;BME280;39674;59.860;30.672;2023-03-18T13:36:50;102031.16;;;5.23;44.55
53758;BME280;39674;59.860;30.672;2023-03-18T13:39:24;102024.16;;;5.22;44.46
53758;BME280;39674;59.860;30.672;2023-03-18T13:42:06;102011.09;;;5.20;44.63
53758;BME280;39674;59.860;30.672;2023-03-18T13:44:45;102009.31;;;5.22;44.91
53758;BME280;39674;59.860;30.672;2023-03-18T13:47:33;102013.69;;;5.23;44.47
53758;BME280;39674;59.860;30.672;2023-03-18T13:50:04;102010.22;;;5.18;44.39
53758;BME280;39674;59.860;30.672;2023-03-18T13:52:48;101997.13;;;5.18;44.38
53758;BME280;39674;59.860;30.672;2023-03-18T13:55:24;102005.06;;;5.10;45.01
53758;BME280;39674;59.860;30.672;2023-03-18T13:58:14;102005.91;;;5.14;44.02
53758;BME280;39674;59.860;30.672;2023-03-18T14:09:49;101981.50;;;5.09;44.95
53758;BME280;39674;59.860;30.672;2023-03-18T14:12:36;101974.50;;;5.11;44.86
53758;BME280;39674;59.860;30.672;2023-03-18T14:17:54;101973.66;;;5.06;45.10
53758;BME280;39674;59.860;30.672;2023-03-18T14:20:24;101962.28;;;5.10;44.60
53758;BME280;39674;59.860;30.672;2023-03-18T14:25:52;101948.41;;;4.98;45.65
53758;BME280;39674;59.860;30.672;2023-03-18T14:28:28;101946.66;;;5.01;44.91
53758;BME280;39674;59.860;30.672;2023-03-18T14:30:58;101944.97;;;4.93;45.87
53758;BME280;39674;59.860;30.672;2023-03-18T14:33:51;101944.06;;;4.96;45.59
53758;BME280;39674;59.860;30.672;2023-03-18T14:36:29;101924.91;;;4.91;46.29
53758;BME280;39674;59.860;30.672;2023-03-18T14:39:12;101929.31;;;4.87;46.25
53758;BME280;39674;59.860;30.672;2023-03-18T14:41:44;101931.06;;;4.88;45.79
53758;BME280;39674;59.860;30.672;2023-03-18T14:44:21;101931.09;;;4.82;46.01
53758;BME280;39674;59.860;30.672;2023-03-18T14:46:58;101923.22;;;4.84;45.53
53758;BME280;39674;59.860;30.672;2023-03-18T14:49:31;101926.69;;;4.84;45.78
53758;BME280;39674;59.860;30.672;2023-03-18T14:52:01;101916.28;;;4.81;45.05
53758;BME280;39674;59.860;30.672;2023-03-18T14:54:35;101910.16;;;4.82;45.45
53758;BME280;39674;59.860;30.672;2023-03-18T14:57:13;101908.38;;;4.84;44.23